Time;durP1;ratioP1;P1;durP2;ratioP2;P2;SDS_P1;SDS_P2;PMS_P1;PMS_P2;Temp;Humidity;BMP_temperature;BMP_pressure;BME280_temperature;BME280_humidity;BME280_pressure;Samples;Min_cycle;Max_cycle;Signal;HPM_P1;HPM_P2
2021/08/14 00:01:51;;;;;;;8.82;5.30;;;;;;;;;;5060568;28;20206;-58
2021/08/14 00:04:16;;;;;;;11.40;4.88;;;;;;;;;;5050042;28;20260;-58
2021/08/14 00:06:41;;;;;;;8.90;5.27;;;;;;;;;;5052626;28;20727;-57
2021/08/14 00:09:07;;;;;;;9.23;4.82;;;;;;;;;;5034679;28;20436;-58
2021/08/14 00:11:32;;;;;;;6.57;4.80;;;;;;;;;;5063624;28;20208;-57
2021/08/14 00:13:57;;;;;;;5.80;3.95;;;;;;;;;;5056577;28;21580;-57
2021/08/14 00:16:22;;;;;;;6.15;4.30;;;;;;;;;;5058453;28;20197;-58
2021/08/14 00:18:47;;;;;;;5.85;4.90;;;;;;;;;;5056196;28;20196;-57
2021/08/14 00:21:13;;;;;;;6.75;4.72;;;;;;;;;;5064966;28;20204;-57
2021/08/14 00:23:38;;;;;;;7.60;5.53;;;;;;;;;;5051687;28;20186;-57
2021/08/14 00:26:03;;;;;;;13.15;5.65;;;;;;;;;;5034313;28;20681;-57
2021/08/14 00:28:28;;;;;;;7.90;5.03;;;;;;;;;;5052186;28;20182;-56
2021/08/14 00:30:53;;;;;;;7.30;5.20;;;;;;;;;;5033331;28;20421;-57
2021/08/14 00:33:19;;;;;;;7.45;5.57;;;;;;;;;;5058942;28;20283;-57
2021/08/14 00:35:44;;;;;;;11.05;6.13;;;;;;;;;;5058888;28;20697;-57
2021/08/14 00:38:09;;;;;;;6.82;5.05;;;;;;;;;;5054520;28;20189;-57
2021/08/14 00:40:34;;;;;;;6.95;5.43;;;;;;;;;;5053185;28;20698;-56
2021/08/14 00:43:01;;;;;;;7.55;5.40;;;;;;;;;;5052032;28;20256;-57
2021/08/14 00:45:26;;;;;;;7.63;5.18;;;;;;;;;;5069126;28;20221;-57
2021/08/14 00:47:51;;;;;;;6.35;4.93;;;;;;;;;;5061181;28;20177;-57
2021/08/14 00:50:16;;;;;;;7.88;4.95;;;;;;;;;;5064553;28;20289;-57
2021/08/14 00:52:42;;;;;;;5.60;4.70;;;;;;;;;;5062883;28;20180;-58
2021/08/14 00:55:07;;;;;;;5.05;4.55;;;;;;;;;;5066846;28;20194;-57
2021/08/14 00:57:32;;;;;;;9.87;5.50;;;;;;;;;;5037355;28;20269;-57
2021/08/14 00:59:59;;;;;;;5.93;5.00;;;;;;;;;;5057136;28;20213;-57
2021/08/14 01:02:24;;;;;;;9.43;5.03;;;;;;;;;;5056743;28;20641;-57
2021/08/14 01:04:49;;;;;;;6.80;4.82;;;;;;;;;;5059669;28;20221;-57
2021/08/14 01:07:15;;;;;;;9.93;4.90;;;;;;;;;;5066909;28;20177;-57
2021/08/14 01:09:41;;;;;;;8.37;5.40;;;;;;;;;;5053069;28;20228;-57
2021/08/14 01:12:06;;;;;;;7.20;5.00;;;;;;;;;;5060396;28;20664;-57
2021/08/14 01:14:32;;;;;;;6.77;4.87;;;;;;;;;;5065355;28;20222;-57
2021/08/14 01:16:57;;;;;;;9.33;5.57;;;;;;;;;;5045196;28;20224;-57
2021/08/14 01:19:23;;;;;;;8.63;5.47;;;;;;;;;;5066889;28;20181;-57
2021/08/14 01:21:51;;;;;;;8.90;5.38;;;;;;;;;;5065124;28;20237;-57
2021/08/14 01:24:16;;;;;;;9.27;5.07;;;;;;;;;;5053241;28;20549;-57
2021/08/14 01:26:42;;;;;;;9.50;5.30;;;;;;;;;;5058495;28;20217;-57
2021/08/14 01:29:08;;;;;;;7.83;4.53;;;;;;;;;;5056681;28;20190;-57
2021/08/14 01:31:33;;;;;;;8.23;5.13;;;;;;;;;;5061852;28;20189;-57
2021/08/14 01:33:58;;;;;;;8.87;5.47;;;;;;;;;;5047554;28;20276;-57
2021/08/14 01:36:23;;;;;;;7.23;4.63;;;;;;;;;;5060114;28;20858;-57
2021/08/14 01:38:53;;;;;;;7.30;5.10;;;;;;;;;;5034397;28;20186;-57
2021/08/14 01:41:19;;;;;;;8.63;5.07;;;;;;;;;;5052341;28;20205;-57
2021/08/14 01:44:03;;;;;;;8.67;5.07;;;;;;;;;;5063501;28;20264;-57
2021/08/14 01:46:30;;;;;;;6.60;4.77;;;;;;;;;;5050900;28;20678;-56
2021/08/14 01:48:56;;;;;;;7.53;5.17;;;;;;;;;;5062970;28;20196;-58
2021/08/14 01:51:21;;;;;;;13.17;4.83;;;;;;;;;;5063712;28;20673;-57
2021/08/14 01:53:50;;;;;;;7.83;4.90;;;;;;;;;;5039727;28;20244;-57
2021/08/14 01:56:16;;;;;;;7.57;4.97;;;;;;;;;;5060514;28;20298;-57
2021/08/14 01:58:41;;;;;;;5.67;4.80;;;;;;;;;;5050726;28;20611;-57
2021/08/14 02:01:06;;;;;;;7.77;4.90;;;;;;;;;;5048503;28;20766;-56
2021/08/14 02:03:31;;;;;;;11.73;5.17;;;;;;;;;;5060201;28;20177;-57
2021/08/14 02:05:56;;;;;;;7.97;4.97;;;;;;;;;;5064229;28;20288;-57
2021/08/14 02:08:22;;;;;;;9.73;5.17;;;;;;;;;;5063271;28;20552;-57
2021/08/14 02:10:47;;;;;;;11.23;5.03;;;;;;;;;;5062343;28;20264;-57
2021/08/14 02:13:12;;;;;;;6.83;5.07;;;;;;;;;;5054845;28;20768;-57
2021/08/14 02:15:37;;;;;;;10.10;5.07;;;;;;;;;;5034386;28;20205;-57
2021/08/14 02:18:02;;;;;;;11.00;5.47;;;;;;;;;;5063584;28;20181;-57
2021/08/14 02:20:27;;;;;;;11.73;5.23;;;;;;;;;;5063915;28;20197;-57
2021/08/14 02:22:53;;;;;;;6.80;4.97;;;;;;;;;;5039443;28;20709;-57
2021/08/14 02:25:18;;;;;;;10.33;5.47;;;;;;;;;;5059795;23;20207;-77
2021/08/14 02:27:43;;;;;;;7.53;4.90;;;;;;;;;;5026593;28;20203;-77
2021/08/14 02:30:08;;;;;;;6.67;4.53;;;;;;;;;;5021620;28;20578;-77
2021/08/14 02:32:34;;;;;;;6.50;5.07;;;;;;;;;;5020331;28;20232;-77
2021/08/14 02:34:59;;;;;;;9.07;5.37;;;;;;;;;;5020996;28;20182;-77
2021/08/14 02:37:24;;;;;;;7.67;5.17;;;;;;;;;;5007131;28;20195;-77
2021/08/14 02:39:49;;;;;;;7.07;5.13;;;;;;;;;;5006699;28;20207;-77
2021/08/14 02:42:15;;;;;;;8.33;5.07;;;;;;;;;;5026482;28;20248;-77
2021/08/14 02:44:40;;;;;;;9.17;4.73;;;;;;;;;;5015088;28;20179;-77
2021/08/14 02:47:05;;;;;;;8.43;4.40;;;;;;;;;;5017290;28;20183;-77
2021/08/14 02:49:30;;;;;;;10.40;5.07;;;;;;;;;;5023634;28;20378;-77
2021/08/14 02:51:55;;;;;;;11.70;5.13;;;;;;;;;;5018520;28;20277;-77
2021/08/14 02:54:20;;;;;;;8.03;5.00;;;;;;;;;;5026138;28;20191;-77
2021/08/14 02:56:46;;;;;;;13.80;5.90;;;;;;;;;;5006359;28;20197;-77
2021/08/14 02:59:11;;;;;;;9.67;5.20;;;;;;;;;;5019251;28;20217;-77
2021/08/14 03:01:36;;;;;;;8.17;4.97;;;;;;;;;;5018495;28;20666;-78
2021/08/14 03:04:01;;;;;;;7.43;5.50;;;;;;;;;;5028454;28;20441;-77
2021/08/14 03:06:27;;;;;;;5.97;4.30;;;;;;;;;;5025736;28;20405;-76
2021/08/14 03:08:52;;;;;;;8.20;4.83;;;;;;;;;;5011283;28;20978;-77
2021/08/14 03:11:18;;;;;;;5.77;4.27;;;;;;;;;;5025148;28;20183;-77
2021/08/14 03:13:43;;;;;;;9.90;5.40;;;;;;;;;;5016430;28;20183;-78
2021/08/14 03:16:08;;;;;;;6.40;4.57;;;;;;;;;;5025834;28;20273;-77
2021/08/14 03:18:33;;;;;;;7.43;4.60;;;;;;;;;;5021682;28;20178;-77
2021/08/14 03:20:58;;;;;;;10.70;5.47;;;;;;;;;;5025986;28;20265;-77
2021/08/14 03:23:23;;;;;;;7.17;5.00;;;;;;;;;;5020032;28;20172;-78
2021/08/14 03:25:49;;;;;;;6.63;4.87;;;;;;;;;;5004890;28;20559;-77
2021/08/14 03:28:14;;;;;;;9.03;4.73;;;;;;;;;;5024428;28;20179;-78
2021/08/14 03:30:39;;;;;;;6.97;4.40;;;;;;;;;;5012281;28;20200;-77
2021/08/14 03:33:04;;;;;;;9.83;4.60;;;;;;;;;;5013291;28;20202;-76
2021/08/14 03:35:29;;;;;;;8.60;5.10;;;;;;;;;;5004150;28;20206;-77
2021/08/14 03:37:55;;;;;;;8.00;4.77;;;;;;;;;;5024276;28;20195;-78
2021/08/14 03:40:20;;;;;;;9.43;4.43;;;;;;;;;;5024536;28;20309;-77
2021/08/14 03:42:45;;;;;;;7.97;4.53;;;;;;;;;;5013923;28;20208;-77
2021/08/14 03:45:11;;;;;;;7.50;4.13;;;;;;;;;;5012519;28;20179;-77
2021/08/14 03:47:36;;;;;;;6.50;4.20;;;;;;;;;;5020999;28;20262;-77
2021/08/14 03:50:02;;;;;;;6.30;4.40;;;;;;;;;;5021593;28;20201;-77
2021/08/14 03:52:27;;;;;;;7.13;4.00;;;;;;;;;;5021118;28;20181;-77
2021/08/14 03:54:52;;;;;;;9.93;4.30;;;;;;;;;;5026479;28;20186;-77
2021/08/14 03:57:17;;;;;;;5.93;4.10;;;;;;;;;;5028026;28;20241;-77
2021/08/14 03:59:42;;;;;;;7.30;3.83;;;;;;;;;;5028397;28;20210;-76
2021/08/14 04:02:07;;;;;;;5.50;3.70;;;;;;;;;;5026334;28;20198;-77
2021/08/14 04:04:33;;;;;;;10.53;4.07;;;;;;;;;;5022055;28;20180;-77
2021/08/14 04:06:58;;;;;;;8.33;3.97;;;;;;;;;;5022936;28;20194;-76
2021/08/14 04:09:23;;;;;;;5.73;4.07;;;;;;;;;;5026271;28;20293;-77
2021/08/14 04:11:48;;;;;;;10.07;4.27;;;;;;;;;;5016017;28;20588;-76
2021/08/14 04:14:13;;;;;;;8.90;4.07;;;;;;;;;;5008996;28;20202;-76
2021/08/14 04:16:38;;;;;;;6.83;3.87;;;;;;;;;;5024301;28;20193;-76
2021/08/14 04:19:04;;;;;;;5.30;3.90;;;;;;;;;;5016216;28;20294;-76
2021/08/14 04:21:29;;;;;;;5.73;3.70;;;;;;;;;;4995998;28;20224;-76
2021/08/14 04:23:54;;;;;;;4.77;4.00;;;;;;;;;;5027603;28;20203;-77
2021/08/14 04:26:19;;;;;;;8.30;4.03;;;;;;;;;;5028920;28;20273;-77
2021/08/14 04:28:44;;;;;;;5.67;4.10;;;;;;;;;;5027113;28;20604;-76
2021/08/14 04:31:09;;;;;;;7.17;4.23;;;;;;;;;;5022374;28;20259;-76
2021/08/14 04:33:35;;;;;;;10.93;4.70;;;;;;;;;;5022230;28;20195;-76
2021/08/14 04:36:00;;;;;;;6.27;4.17;;;;;;;;;;5024988;28;20194;-77
2021/08/14 04:38:25;;;;;;;7.33;4.20;;;;;;;;;;5025967;28;20182;-76
2021/08/14 04:40:50;;;;;;;10.07;4.70;;;;;;;;;;5021094;28;20222;-76
2021/08/14 04:43:15;;;;;;;7.23;4.37;;;;;;;;;;5026481;28;20186;-76
2021/08/14 04:45:41;;;;;;;8.20;4.43;;;;;;;;;;5012044;28;20183;-76
2021/08/14 04:48:06;;;;;;;7.43;4.43;;;;;;;;;;5014665;28;20615;-76
2021/08/14 04:50:31;;;;;;;8.93;4.50;;;;;;;;;;5021505;28;20736;-76
2021/08/14 04:52:56;;;;;;;6.73;4.50;;;;;;;;;;5023477;28;20190;-76
2021/08/14 04:55:21;;;;;;;6.63;4.50;;;;;;;;;;5024672;28;20714;-76
2021/08/14 04:57:46;;;;;;;9.33;4.40;;;;;;;;;;5020500;28;20190;-76
2021/08/14 05:00:12;;;;;;;8.67;4.50;;;;;;;;;;5014619;28;20236;-76
2021/08/14 05:02:37;;;;;;;9.23;4.17;;;;;;;;;;5007847;28;20536;-76
2021/08/14 05:05:02;;;;;;;6.63;4.63;;;;;;;;;;5018521;28;20179;-76
2021/08/14 05:07:28;;;;;;;8.23;4.30;;;;;;;;;;5014864;28;20591;-76
2021/08/14 05:09:53;;;;;;;6.63;4.67;;;;;;;;;;5017156;28;20207;-76
2021/08/14 05:12:18;;;;;;;9.70;5.00;;;;;;;;;;5025472;28;20183;-77
2021/08/14 05:14:43;;;;;;;6.13;4.53;;;;;;;;;;5024218;28;20186;-76
2021/08/14 05:17:08;;;;;;;5.90;4.53;;;;;;;;;;5022205;28;20179;-79
2021/08/14 05:19:34;;;;;;;8.63;4.50;;;;;;;;;;5023497;28;20520;-76
2021/08/14 05:21:59;;;;;;;8.40;5.13;;;;;;;;;;5019186;28;20602;-77
2021/08/14 05:24:24;;;;;;;5.77;4.27;;;;;;;;;;5019991;28;20168;-77
2021/08/14 05:26:49;;;;;;;14.00;5.07;;;;;;;;;;5016671;28;20195;-77
2021/08/14 05:29:14;;;;;;;6.87;4.10;;;;;;;;;;5013705;28;20206;-77
2021/08/14 05:31:40;;;;;;;6.47;4.03;;;;;;;;;;5010365;28;20193;-77
2021/08/14 05:34:05;;;;;;;9.30;4.67;;;;;;;;;;5015841;28;20557;-76
2021/08/14 05:36:31;;;;;;;11.03;4.13;;;;;;;;;;5023177;28;20182;-76
2021/08/14 05:38:56;;;;;;;9.40;4.30;;;;;;;;;;5016839;28;20187;-77
2021/08/14 05:41:21;;;;;;;8.30;4.53;;;;;;;;;;5007040;28;20203;-77
2021/08/14 05:43:46;;;;;;;11.27;4.67;;;;;;;;;;5011331;28;20179;-77
2021/08/14 05:46:11;;;;;;;6.67;4.10;;;;;;;;;;4996031;28;20651;-77
2021/08/14 05:48:37;;;;;;;6.40;4.00;;;;;;;;;;5014072;28;20183;-77
2021/08/14 05:51:02;;;;;;;10.00;4.43;;;;;;;;;;5024840;28;20241;-77
2021/08/14 05:53:27;;;;;;;6.45;3.97;;;;;;;;;;5024486;28;20182;-77
2021/08/14 05:55:53;;;;;;;6.73;3.80;;;;;;;;;;5014131;28;20214;-77
2021/08/14 05:58:18;;;;;;;7.65;3.50;;;;;;;;;;4995097;28;20209;-77
2021/08/14 06:00:43;;;;;;;11.20;3.90;;;;;;;;;;5018989;28;20340;-77
2021/08/14 06:03:08;;;;;;;11.25;4.03;;;;;;;;;;5024154;28;20554;-76
2021/08/14 06:05:33;;;;;;;8.00;4.10;;;;;;;;;;5020393;28;20197;-77
2021/08/14 06:07:58;;;;;;;6.25;4.00;;;;;;;;;;5017287;28;20302;-77
2021/08/14 06:10:24;;;;;;;7.35;4.30;;;;;;;;;;5049139;23;20257;-57
2021/08/14 06:12:49;;;;;;;6.63;3.75;;;;;;;;;;5042838;28;20185;-57
2021/08/14 06:15:14;;;;;;;4.82;3.42;;;;;;;;;;5044536;28;20197;-57
2021/08/14 06:17:40;;;;;;;5.80;3.47;;;;;;;;;;5033538;28;20181;-57
2021/08/14 06:20:05;;;;;;;7.05;3.25;;;;;;;;;;5030762;28;20213;-57
2021/08/14 06:22:31;;;;;;;7.15;3.60;;;;;;;;;;5034101;28;20188;-57
2021/08/14 06:24:56;;;;;;;5.38;3.03;;;;;;;;;;5044133;28;20190;-56
2021/08/14 06:27:22;;;;;;;7.68;3.70;;;;;;;;;;5036702;28;20264;-57
2021/08/14 06:29:47;;;;;;;6.70;3.10;;;;;;;;;;5031352;28;20204;-57
2021/08/14 06:32:12;;;;;;;6.57;3.13;;;;;;;;;;5045752;28;20684;-56
2021/08/14 06:34:37;;;;;;;8.43;3.00;;;;;;;;;;5025810;28;20210;-57
2021/08/14 06:37:03;;;;;;;8.73;2.92;;;;;;;;;;5043714;28;20221;-57
2021/08/14 06:39:28;;;;;;;6.18;3.08;;;;;;;;;;5041297;28;20194;-57
2021/08/14 06:41:53;;;;;;;8.40;2.67;;;;;;;;;;5039495;28;20223;-57
2021/08/14 06:44:18;;;;;;;4.78;2.67;;;;;;;;;;5043072;28;20170;-57
2021/08/14 06:46:43;;;;;;;7.38;3.20;;;;;;;;;;5040644;28;20202;-57
2021/08/14 06:49:09;;;;;;;13.35;2.72;;;;;;;;;;5036520;28;20679;-57
2021/08/14 06:51:36;;;;;;;10.05;3.33;;;;;;;;;;5027888;28;20220;-57
2021/08/14 06:54:02;;;;;;;8.75;3.35;;;;;;;;;;5044997;28;20186;-57
2021/08/14 06:56:27;;;;;;;8.57;3.42;;;;;;;;;;5046017;28;20733;-57
2021/08/14 06:58:53;;;;;;;10.57;4.60;;;;;;;;;;5024957;28;20186;-58
2021/08/14 07:01:18;;;;;;;9.82;4.60;;;;;;;;;;5043730;28;20532;-58
2021/08/14 07:03:43;;;;;;;11.37;5.03;;;;;;;;;;5048787;28;20205;-58
2021/08/14 07:06:08;;;;;;;9.93;4.50;;;;;;;;;;5044687;28;21135;-58
2021/08/14 07:08:33;;;;;;;8.82;4.35;;;;;;;;;;5040295;28;20425;-58
2021/08/14 07:10:59;;;;;;;11.15;4.57;;;;;;;;;;5044113;28;20658;-58
2021/08/14 07:13:24;;;;;;;8.50;4.83;;;;;;;;;;5033462;28;20178;-57
2021/08/14 07:15:49;;;;;;;9.33;4.80;;;;;;;;;;5043179;28;20215;-58
2021/08/14 07:18:14;;;;;;;9.73;5.32;;;;;;;;;;5039805;28;20919;-58
2021/08/14 07:20:40;;;;;;;15.57;5.40;;;;;;;;;;5014607;28;20681;-58
2021/08/14 07:23:05;;;;;;;9.70;4.97;;;;;;;;;;5046836;28;20181;-58
2021/08/14 07:25:30;;;;;;;13.73;5.93;;;;;;;;;;5044827;28;20424;-58
2021/08/14 07:27:55;;;;;;;12.13;4.60;;;;;;;;;;5042108;28;20228;-58
2021/08/14 07:30:20;;;;;;;7.80;4.22;;;;;;;;;;5045516;28;20182;-58
2021/08/14 07:32:46;;;;;;;9.93;4.53;;;;;;;;;;5041181;28;20200;-58
2021/08/14 07:35:11;;;;;;;9.93;4.17;;;;;;;;;;5042812;28;20711;-58
2021/08/14 07:37:49;;;;;;;8.43;4.18;;;;;;;;;;5044228;28;20968;-58
2021/08/14 07:40:16;;;;;;;8.35;4.65;;;;;;;;;;5027890;28;20305;-58
2021/08/14 07:42:41;;;;;;;8.32;4.25;;;;;;;;;;5032808;28;20178;-58
2021/08/14 07:45:06;;;;;;;7.67;4.20;;;;;;;;;;5039048;28;20238;-57
2021/08/14 07:47:31;;;;;;;8.27;4.50;;;;;;;;;;5039035;28;20285;-58
2021/08/14 07:49:56;;;;;;;10.53;4.03;;;;;;;;;;5033385;28;20185;-57
2021/08/14 07:52:22;;;;;;;7.83;4.13;;;;;;;;;;5037809;28;20181;-57
2021/08/14 07:54:47;;;;;;;9.87;4.30;;;;;;;;;;5043698;28;20181;-57
2021/08/14 07:57:12;;;;;;;7.40;3.90;;;;;;;;;;5027618;28;20206;-57
2021/08/14 07:59:37;;;;;;;8.93;4.30;;;;;;;;;;5029225;28;20250;-58
2021/08/14 08:02:02;;;;;;;8.87;4.10;;;;;;;;;;5047939;28;20216;-58
2021/08/14 08:04:27;;;;;;;8.23;4.18;;;;;;;;;;5029155;28;20798;-58
2021/08/14 08:06:53;;;;;;;8.33;4.70;;;;;;;;;;5042654;28;20204;-58
2021/08/14 08:09:18;;;;;;;7.30;3.90;;;;;;;;;;5039416;28;20649;-58
2021/08/14 08:11:43;;;;;;;8.97;4.30;;;;;;;;;;5041421;28;20194;-58
2021/08/14 08:14:08;;;;;;;9.87;4.43;;;;;;;;;;5032592;28;20516;-57
2021/08/14 08:16:33;;;;;;;11.73;4.70;;;;;;;;;;5033666;28;20220;-57
2021/08/14 08:18:59;;;;;;;10.37;4.20;;;;;;;;;;5039724;28;20233;-57
2021/08/14 08:21:24;;;;;;;7.23;3.67;;;;;;;;;;5043330;28;20463;-58
2021/08/14 08:23:49;;;;;;;8.33;3.93;;;;;;;;;;5032912;28;20437;-58
2021/08/14 08:26:14;;;;;;;11.63;4.13;;;;;;;;;;5042726;28;20449;-57
2021/08/14 08:28:39;;;;;;;7.68;3.38;;;;;;;;;;5031042;28;20425;-58
2021/08/14 08:31:05;;;;;;;9.43;3.60;;;;;;;;;;5029109;28;20182;-57
2021/08/14 08:33:30;;;;;;;9.50;4.07;;;;;;;;;;5042068;28;20273;-57
2021/08/14 08:35:55;;;;;;;8.50;3.97;;;;;;;;;;5043887;28;20452;-57
2021/08/14 08:38:21;;;;;;;7.23;3.47;;;;;;;;;;5028005;28;20436;-58
2021/08/14 08:40:47;;;;;;;6.28;3.78;;;;;;;;;;5045659;28;20513;-58
2021/08/14 08:43:12;;;;;;;7.68;3.90;;;;;;;;;;5044213;28;20178;-58
2021/08/14 08:45:38;;;;;;;8.13;3.78;;;;;;;;;;5043361;28;20229;-58
2021/08/14 08:48:04;;;;;;;10.75;4.03;;;;;;;;;;5028471;28;20735;-58
2021/08/14 08:50:30;;;;;;;8.90;4.05;;;;;;;;;;5029817;28;20266;-59
2021/08/14 08:52:55;;;;;;;8.25;4.53;;;;;;;;;;5041474;28;20225;-58
2021/08/14 08:55:21;;;;;;;8.85;4.65;;;;;;;;;;5034301;28;20550;-57
2021/08/14 08:57:46;;;;;;;8.18;4.75;;;;;;;;;;5045336;28;20178;-58
2021/08/14 09:00:15;;;;;;;10.30;4.47;;;;;;;;;;5061572;23;20225;-58
2021/08/14 09:02:42;;;;;;;9.20;4.68;;;;;;;;;;5062650;28;20192;-58
2021/08/14 09:05:07;;;;;;;9.77;4.50;;;;;;;;;;5063917;28;20177;-58
2021/08/14 09:07:32;;;;;;;9.13;4.25;;;;;;;;;;5064316;28;20327;-58
2021/08/14 09:09:58;;;;;;;5.40;3.53;;;;;;;;;;5045059;28;20199;-58
2021/08/14 09:12:44;;;;;;;10.45;4.80;;;;;;;;;;5042714;28;20556;-58
2021/08/14 09:15:16;;;;;;;10.65;4.72;;;;;;;;;;5037897;28;20186;-57
2021/08/14 09:17:41;;;;;;;5.97;3.65;;;;;;;;;;5035346;28;20190;-57
2021/08/14 09:20:11;;;;;;;7.95;4.85;;;;;;;;;;5042489;28;20276;-57
2021/08/14 09:22:37;;;;;;;10.93;4.72;;;;;;;;;;5043617;28;20719;-57
2021/08/14 09:25:16;;;;;;;13.52;5.30;;;;;;;;;;5039827;28;20178;-57
2021/08/14 09:27:51;;;;;;;8.82;4.55;;;;;;;;;;5040731;28;20186;-57
2021/08/14 09:30:16;;;;;;;8.68;4.60;;;;;;;;;;5035364;28;20284;-57
2021/08/14 09:32:41;;;;;;;13.35;4.20;;;;;;;;;;5046961;28;20268;-57
2021/08/14 09:35:07;;;;;;;8.90;4.20;;;;;;;;;;5031943;28;20183;-57
2021/08/14 09:37:37;;;;;;;7.82;3.90;;;;;;;;;;5034400;28;20214;-57
2021/08/14 09:40:02;;;;;;;8.73;4.03;;;;;;;;;;5034448;28;20194;-58
2021/08/14 09:42:28;;;;;;;6.38;3.92;;;;;;;;;;5032720;28;20228;-59
2021/08/14 09:45:13;;;;;;;8.95;4.05;;;;;;;;;;5041806;28;20740;-58
2021/08/14 09:47:38;;;;;;;7.78;4.22;;;;;;;;;;5040147;28;20240;-58
2021/08/14 09:50:04;;;;;;;7.13;4.00;;;;;;;;;;5043844;28;20608;-57
2021/08/14 09:52:29;;;;;;;6.63;4.30;;;;;;;;;;5039448;28;20437;-58
2021/08/14 09:54:55;;;;;;;11.90;4.22;;;;;;;;;;5015772;28;20247;-58
2021/08/14 09:57:20;;;;;;;9.23;4.53;;;;;;;;;;5031500;28;20185;-58
2021/08/14 09:59:46;;;;;;;11.75;4.38;;;;;;;;;;5032556;28;20699;-58
2021/08/14 10:02:16;;;;;;;8.52;4.32;;;;;;;;;;5028658;28;20242;-58
2021/08/14 10:04:43;;;;;;;14.38;4.13;;;;;;;;;;5029859;28;20676;-57
2021/08/14 10:07:08;;;;;;;7.43;3.72;;;;;;;;;;5038111;28;20656;-57
2021/08/14 10:09:34;;;;;;;7.50;4.50;;;;;;;;;;5038263;28;20342;-58
2021/08/14 10:11:59;;;;;;;6.60;4.13;;;;;;;;;;5045015;28;20673;-58
2021/08/14 10:14:24;;;;;;;6.18;4.25;;;;;;;;;;5031901;28;20561;-58
2021/08/14 10:16:50;;;;;;;6.43;4.05;;;;;;;;;;5044035;28;20272;-58
2021/08/14 10:19:15;;;;;;;6.90;4.13;;;;;;;;;;5026645;28;20246;-58
2021/08/14 10:21:40;;;;;;;8.73;4.10;;;;;;;;;;5029510;28;20208;-58
2021/08/14 10:24:07;;;;;;;9.63;4.80;;;;;;;;;;5020366;28;20469;-58
2021/08/14 10:26:33;;;;;;;7.20;4.03;;;;;;;;;;5042182;28;20421;-58
2021/08/14 10:28:58;;;;;;;9.25;4.25;;;;;;;;;;5035728;28;20400;-57
2021/08/14 10:31:29;;;;;;;11.30;4.28;;;;;;;;;;5046013;28;20182;-58
2021/08/14 10:34:18;;;;;;;8.85;4.50;;;;;;;;;;5029478;28;20685;-57
2021/08/14 10:36:44;;;;;;;12.45;4.85;;;;;;;;;;5034630;28;20208;-57
2021/08/14 10:39:17;;;;;;;5.32;4.18;;;;;;;;;;5041757;28;20206;-59
2021/08/14 10:41:43;;;;;;;7.68;4.43;;;;;;;;;;5042191;28;20880;-57
2021/08/14 10:44:08;;;;;;;7.95;4.32;;;;;;;;;;5031076;28;20179;-58
2021/08/14 10:46:43;;;;;;;9.15;4.40;;;;;;;;;;5047957;28;20239;-58
2021/08/14 10:49:09;;;;;;;7.32;4.57;;;;;;;;;;5045406;28;20204;-58
2021/08/14 10:51:51;;;;;;;7.93;4.20;;;;;;;;;;5025068;28;20712;-58
2021/08/14 10:54:36;;;;;;;6.88;3.72;;;;;;;;;;5039512;28;20259;-58
2021/08/14 10:57:03;;;;;;;8.65;4.20;;;;;;;;;;5029954;28;20280;-58
2021/08/14 10:59:34;;;;;;;6.18;4.28;;;;;;;;;;5029865;28;20210;-58
2021/08/14 11:01:59;;;;;;;8.18;4.10;;;;;;;;;;5040230;28;20296;-58
2021/08/14 11:04:37;;;;;;;7.32;4.65;;;;;;;;;;5034042;28;20275;-57
2021/08/14 11:07:17;;;;;;;6.75;4.60;;;;;;;;;;5040924;28;20478;-58
2021/08/14 11:09:46;;;;;;;8.77;4.47;;;;;;;;;;5041420;28;20201;-58
2021/08/14 11:12:11;;;;;;;7.82;3.92;;;;;;;;;;5037230;28;20203;-58
2021/08/14 11:14:46;;;;;;;8.50;4.55;;;;;;;;;;5038782;28;20220;-57
2021/08/14 11:17:12;;;;;;;9.13;4.70;;;;;;;;;;5033543;28;20192;-57
2021/08/14 11:19:55;;;;;;;8.55;4.50;;;;;;;;;;5034721;28;20198;-58
2021/08/14 11:22:20;;;;;;;7.55;4.03;;;;;;;;;;5044309;28;20198;-57
2021/08/14 11:24:45;;;;;;;6.32;4.38;;;;;;;;;;5042694;28;20712;-57
2021/08/14 11:27:18;;;;;;;6.15;4.10;;;;;;;;;;5025067;28;20601;-57
2021/08/14 11:29:43;;;;;;;6.93;4.10;;;;;;;;;;5048540;28;20206;-58
2021/08/14 11:32:08;;;;;;;11.20;4.70;;;;;;;;;;5034765;28;20187;-58
2021/08/14 11:34:35;;;;;;;8.17;4.60;;;;;;;;;;5019055;28;20999;-58
2021/08/14 11:37:00;;;;;;;6.25;3.75;;;;;;;;;;5019308;28;20445;-58
2021/08/14 11:39:29;;;;;;;7.45;4.03;;;;;;;;;;5042380;28;20229;-58
2021/08/14 11:41:54;;;;;;;6.22;3.92;;;;;;;;;;5044451;28;20209;-59
2021/08/14 11:44:20;;;;;;;8.77;3.95;;;;;;;;;;5040552;28;20607;-58
2021/08/14 11:46:45;;;;;;;7.07;4.25;;;;;;;;;;5033771;28;20604;-58
2021/08/14 11:49:10;;;;;;;9.83;4.07;;;;;;;;;;5027708;28;20280;-59
2021/08/14 11:51:36;;;;;;;6.93;3.78;;;;;;;;;;5044724;28;20408;-58
2021/08/14 11:54:03;;;;;;;7.67;4.17;;;;;;;;;;5044474;28;20269;-58
2021/08/14 11:56:29;;;;;;;11.05;4.00;;;;;;;;;;5046011;28;20515;-58
2021/08/14 11:58:54;;;;;;;7.50;3.97;;;;;;;;;;5042106;28;20289;-58
2021/08/14 12:01:20;;;;;;;9.47;4.50;;;;;;;;;;5031332;28;20264;-58
2021/08/14 12:03:52;;;;;;;6.03;4.65;;;;;;;;;;5036698;28;20418;-58
2021/08/14 12:06:17;;;;;;;8.95;4.05;;;;;;;;;;5025748;28;20175;-57
2021/08/14 12:08:44;;;;;;;8.83;4.10;;;;;;;;;;5026608;28;20194;-58
2021/08/14 12:11:10;;;;;;;5.35;4.07;;;;;;;;;;5036315;28;20425;-58
2021/08/14 12:13:36;;;;;;;6.72;4.40;;;;;;;;;;5039154;28;20305;-57
2021/08/14 12:16:21;;;;;;;10.82;4.55;;;;;;;;;;5020453;28;20277;-58
2021/08/14 12:18:47;;;;;;;7.20;4.38;;;;;;;;;;5043106;28;20731;-58
2021/08/14 12:21:13;;;;;;;7.22;4.72;;;;;;;;;;5031435;28;20202;-57
2021/08/14 12:23:39;;;;;;;11.43;4.20;;;;;;;;;;5029366;28;20178;-58
2021/08/14 12:26:09;;;;;;;7.35;4.35;;;;;;;;;;5044819;28;20967;-57
2021/08/14 12:28:34;;;;;;;7.85;4.20;;;;;;;;;;5041216;28;20201;-58
2021/08/14 12:31:12;;;;;;;8.17;4.10;;;;;;;;;;5042812;28;20206;-58
2021/08/14 12:33:44;;;;;;;9.45;4.63;;;;;;;;;;5029985;28;20409;-58
2021/08/14 12:36:10;;;;;;;10.55;4.20;;;;;;;;;;5041821;28;20181;-57
2021/08/14 12:38:46;;;;;;;9.13;4.50;;;;;;;;;;5044592;28;20232;-58
2021/08/14 12:41:15;;;;;;;5.00;4.20;;;;;;;;;;5033072;28;20460;-58
2021/08/14 12:43:44;;;;;;;5.65;4.30;;;;;;;;;;5046332;28;20239;-58
2021/08/14 12:46:16;;;;;;;7.25;4.35;;;;;;;;;;5031577;28;20182;-58
2021/08/14 12:48:41;;;;;;;5.32;3.88;;;;;;;;;;5040821;28;20198;-57
2021/08/14 12:51:09;;;;;;;7.77;4.20;;;;;;;;;;5043939;28;20285;-58
2021/08/14 12:53:34;;;;;;;5.18;4.00;;;;;;;;;;5043569;28;20423;-58
2021/08/14 12:56:11;;;;;;;7.10;3.70;;;;;;;;;;5042771;28;20185;-58
2021/08/14 12:58:37;;;;;;;5.57;4.32;;;;;;;;;;5041356;28;20454;-58
2021/08/14 13:01:02;;;;;;;5.90;4.33;;;;;;;;;;5042505;28;20199;-58
2021/08/14 13:03:27;;;;;;;7.55;4.47;;;;;;;;;;5039467;28;20429;-57
2021/08/14 13:05:52;;;;;;;6.82;4.35;;;;;;;;;;5032950;28;20189;-58
2021/08/14 13:08:18;;;;;;;6.78;4.40;;;;;;;;;;5043045;28;20678;-58
2021/08/14 13:10:45;;;;;;;5.95;3.90;;;;;;;;;;5043286;28;20232;-57
2021/08/14 13:13:12;;;;;;;6.05;4.18;;;;;;;;;;5037147;28;20590;-58
2021/08/14 13:15:37;;;;;;;5.45;4.25;;;;;;;;;;5007380;28;20174;-58
2021/08/14 13:18:03;;;;;;;5.65;3.78;;;;;;;;;;5036358;28;20193;-57
2021/08/14 13:20:28;;;;;;;9.53;4.20;;;;;;;;;;5032723;28;20206;-58
2021/08/14 13:22:54;;;;;;;6.78;4.10;;;;;;;;;;5029376;28;20950;-57
2021/08/14 13:25:20;;;;;;;4.88;4.00;;;;;;;;;;5035365;28;20182;-58
2021/08/14 13:27:45;;;;;;;4.13;3.53;;;;;;;;;;5040470;28;20661;-57
2021/08/14 13:30:14;;;;;;;4.43;3.53;;;;;;;;;;5042153;28;20259;-58
2021/08/14 13:32:40;;;;;;;6.63;3.92;;;;;;;;;;5028604;28;20684;-58
2021/08/14 13:35:06;;;;;;;8.88;4.28;;;;;;;;;;5029811;28;20186;-58
2021/08/14 13:37:31;;;;;;;4.20;3.60;;;;;;;;;;5030919;28;20194;-58
2021/08/14 13:39:56;;;;;;;7.40;3.90;;;;;;;;;;5032218;28;20221;-57
2021/08/14 13:42:21;;;;;;;6.80;4.20;;;;;;;;;;5021605;28;20478;-56
2021/08/14 13:44:46;;;;;;;6.55;4.07;;;;;;;;;;5020620;28;20409;-58
2021/08/14 13:47:12;;;;;;;5.20;3.47;;;;;;;;;;5036591;28;20178;-58
2021/08/14 13:49:37;;;;;;;8.40;3.90;;;;;;;;;;5022319;28;20198;-58
2021/08/14 13:52:03;;;;;;;6.07;3.97;;;;;;;;;;5034916;28;20936;-57
2021/08/14 13:54:29;;;;;;;6.95;4.57;;;;;;;;;;5014841;28;20440;-57
2021/08/14 13:56:54;;;;;;;4.87;3.90;;;;;;;;;;5039419;28;20247;-57
2021/08/14 13:59:20;;;;;;;7.73;4.03;;;;;;;;;;5021142;28;20464;-58
2021/08/14 14:01:46;;;;;;;6.65;4.35;;;;;;;;;;5038354;28;20543;-58
2021/08/14 14:04:11;;;;;;;9.00;4.05;;;;;;;;;;5040984;28;20261;-58
2021/08/14 14:06:36;;;;;;;9.88;4.45;;;;;;;;;;5034637;28;20265;-58
2021/08/14 14:09:02;;;;;;;11.88;4.50;;;;;;;;;;5039452;28;20198;-58
2021/08/14 14:11:27;;;;;;;10.50;4.18;;;;;;;;;;5033413;28;20228;-58
2021/08/14 14:13:52;;;;;;;4.95;3.85;;;;;;;;;;5034299;28;20377;-58
2021/08/14 14:16:17;;;;;;;8.20;4.38;;;;;;;;;;5030890;28;20186;-58
2021/08/14 14:18:42;;;;;;;10.97;4.80;;;;;;;;;;5022200;28;20233;-57
2021/08/14 14:21:09;;;;;;;6.47;4.33;;;;;;;;;;5030817;28;21226;-58
2021/08/14 14:23:34;;;;;;;5.57;4.07;;;;;;;;;;5032744;28;20409;-58
2021/08/14 14:25:59;;;;;;;8.03;4.23;;;;;;;;;;5034607;28;20175;-58
2021/08/14 14:28:24;;;;;;;5.63;3.83;;;;;;;;;;5036530;28;20824;-57
2021/08/14 14:30:49;;;;;;;9.05;4.35;;;;;;;;;;5040895;28;20468;-58
2021/08/14 14:33:14;;;;;;;6.10;4.37;;;;;;;;;;5045491;28;20213;-58
2021/08/14 14:35:41;;;;;;;8.40;5.10;;;;;;;;;;5026487;28;20502;-57